createdAt,value
2023-01-28T00:01:57.460Z,7.78
2023-01-28T00:04:24.604Z,7.10
2023-01-28T00:06:51.545Z,8.35
2023-01-28T00:09:18.606Z,8.57
2023-01-28T00:11:45.654Z,7.30
2023-01-28T00:14:13.030Z,7.47
2023-01-28T00:16:40.097Z,6.32
2023-01-28T00:19:07.443Z,6.68
2023-01-28T00:21:34.747Z,6.90
2023-01-28T00:24:02.102Z,7.30
2023-01-28T00:26:29.094Z,6.15
2023-01-28T00:28:56.015Z,5.93
2023-01-28T00:31:25.286Z,5.68
2023-01-28T00:33:55.132Z,7.95
2023-01-28T00:36:24.265Z,6.80
2023-01-28T00:38:53.754Z,7.03
2023-01-28T00:41:22.651Z,7.72
2023-01-28T00:43:51.705Z,6.70
2023-01-28T00:46:19.118Z,6.40
2023-01-28T00:48:46.453Z,6.30
2023-01-28T00:51:15.396Z,6.63
2023-01-28T00:53:43.159Z,8.63
2023-01-28T00:56:14.363Z,6.45
2023-01-28T00:58:41.823Z,8.85
2023-01-28T01:01:18.834Z,7.32
2023-01-28T01:03:46.216Z,7.00
2023-01-28T01:06:15.880Z,6.65
2023-01-28T01:08:50.113Z,6.95
2023-01-28T01:11:18.630Z,7.05
2023-01-28T01:13:49.809Z,6.50
2023-01-28T01:16:17.833Z,5.95
2023-01-28T01:18:45.322Z,6.15
2023-01-28T01:21:17.993Z,6.30
2023-01-28T01:23:46.064Z,5.70
2023-01-28T01:26:13.961Z,7.95
2023-01-28T01:28:41.441Z,6.32
2023-01-28T01:31:20.307Z,7.05
2023-01-28T01:33:49.577Z,6.82
2023-01-28T01:36:19.632Z,7.15
2023-01-28T01:38:46.802Z,6.57
2023-01-28T01:41:31.429Z,7.03
2023-01-28T01:44:01.182Z,5.60
2023-01-28T01:46:43.667Z,5.40
2023-01-28T01:49:13.838Z,6.10
2023-01-28T01:51:41.321Z,8.48
2023-01-28T01:54:08.488Z,5.82
2023-01-28T01:56:40.032Z,5.65
2023-01-28T01:59:12.489Z,6.22
2023-01-28T02:01:40.742Z,5.68
2023-01-28T02:04:27.427Z,5.70
2023-01-28T02:06:55.178Z,5.97
2023-01-28T02:09:30.776Z,5.95
2023-01-28T02:12:04.370Z,6.53
2023-01-28T02:14:35.210Z,6.32
2023-01-28T02:17:02.649Z,6.50
2023-01-28T02:19:39.058Z,6.85
2023-01-28T02:22:33.189Z,6.32
2023-01-28T02:25:00.094Z,7.15
2023-01-28T02:27:33.690Z,7.75
2023-01-28T02:30:11.042Z,6.45
2023-01-28T02:32:46.119Z,7.38
2023-01-28T02:35:24.993Z,8.00
2023-01-28T02:38:01.672Z,7.43
2023-01-28T02:40:32.484Z,7.20
2023-01-28T02:42:59.975Z,7.38
2023-01-28T02:45:51.423Z,6.97
2023-01-28T02:48:22.203Z,7.72
2023-01-28T02:51:05.510Z,7.45
2023-01-28T02:53:58.975Z,7.28
2023-01-28T02:56:45.573Z,7.20
2023-01-28T02:59:51.761Z,7.18
2023-01-28T03:02:38.737Z,7.40
2023-01-28T03:05:22.482Z,7.28
2023-01-28T03:07:51.128Z,8.30
2023-01-28T03:10:21.657Z,7.32
2023-01-28T03:13:15.779Z,7.68
2023-01-28T03:16:06.164Z,8.43
2023-01-28T03:19:02.300Z,7.90
2023-01-28T03:22:01.104Z,6.75
2023-01-28T03:25:05.800Z,7.63
2023-01-28T03:28:15.321Z,7.32
2023-01-28T03:31:14.754Z,7.88
2023-01-28T03:34:08.049Z,8.10
2023-01-28T03:36:48.669Z,7.03
2023-01-28T03:39:38.954Z,8.32
2023-01-28T03:42:11.966Z,7.43
2023-01-28T03:45:04.661Z,7.50
2023-01-28T03:47:33.240Z,7.97
2023-01-28T03:50:02.478Z,8.32
2023-01-28T03:52:39.229Z,7.93
2023-01-28T03:55:16.680Z,7.75
2023-01-28T03:57:44.966Z,8.00
2023-01-28T04:00:13.925Z,8.63
2023-01-28T04:02:43.942Z,7.40
2023-01-28T04:05:15.992Z,7.85
2023-01-28T04:07:47.408Z,8.07
2023-01-28T04:10:40.775Z,7.47
2023-01-28T04:13:12.488Z,7.10
2023-01-28T04:15:42.191Z,7.68
2023-01-28T04:18:10.912Z,7.97
2023-01-28T04:20:38.495Z,8.25
2023-01-28T04:23:07.071Z,7.05
2023-01-28T04:25:35.119Z,8.70
2023-01-28T04:28:04.751Z,7.18
2023-01-28T04:30:32.063Z,7.57
2023-01-28T04:33:29.168Z,7.90
2023-01-28T04:36:03.683Z,7.63
2023-01-28T04:38:42.800Z,8.20
2023-01-28T04:41:31.165Z,6.68
2023-01-28T04:44:04.732Z,7.43
2023-01-28T04:46:55.345Z,6.97
2023-01-28T04:49:49.022Z,7.50
2023-01-28T04:52:26.761Z,8.52
2023-01-28T04:54:58.110Z,7.93
2023-01-28T04:57:25.163Z,7.78
2023-01-28T04:59:52.206Z,7.78
2023-01-28T05:02:19.215Z,6.93
2023-01-28T05:04:47.887Z,7.53
2023-01-28T05:07:30.416Z,8.85
2023-01-28T05:09:57.464Z,7.65
2023-01-28T05:12:24.611Z,8.73
2023-01-28T05:14:52.160Z,8.15
2023-01-28T05:17:21.108Z,8.70
2023-01-28T05:19:48.761Z,9.23
2023-01-28T05:22:20.845Z,7.60
2023-01-28T05:25:10.872Z,8.63
2023-01-28T05:27:37.936Z,9.10
2023-01-28T05:30:06.670Z,9.18
2023-01-28T05:32:33.989Z,8.82
2023-01-28T05:35:01.166Z,9.38
2023-01-28T05:37:28.236Z,9.02
2023-01-28T05:39:56.703Z,8.02
2023-01-28T05:42:23.713Z,8.43
2023-01-28T05:44:55.856Z,9.30
2023-01-28T05:47:39.782Z,7.45
2023-01-28T05:50:36.256Z,8.93
2023-01-28T05:53:16.919Z,7.80
2023-01-28T05:55:53.345Z,9.45
2023-01-28T05:58:21.451Z,8.73
2023-01-28T06:00:48.412Z,8.10
2023-01-28T06:03:19.550Z,8.02
2023-01-28T06:05:47.858Z,7.80
2023-01-28T06:08:15.273Z,7.85
2023-01-28T06:10:42.421Z,8.18
2023-01-28T06:13:10.473Z,8.43
2023-01-28T06:15:55.741Z,8.18
2023-01-28T06:18:41.658Z,7.53
2023-01-28T06:21:09.522Z,9.63
2023-01-28T06:23:37.356Z,7.32
2023-01-28T06:26:08.119Z,8.75
2023-01-28T06:28:36.669Z,9.10
2023-01-28T06:31:03.760Z,9.10
2023-01-28T06:33:30.748Z,9.43
2023-01-28T06:35:57.684Z,9.13
2023-01-28T06:38:24.662Z,8.75
2023-01-28T06:40:53.237Z,8.98
2023-01-28T06:43:20.199Z,8.63
2023-01-28T06:45:47.196Z,9.15
2023-01-28T06:48:14.119Z,8.90
2023-01-28T06:50:41.028Z,8.68
2023-01-28T06:53:08.090Z,7.82
2023-01-28T06:55:34.986Z,8.45
2023-01-28T06:58:02.077Z,9.30
2023-01-28T07:00:29.048Z,11.50
2023-01-28T07:02:57.301Z,10.43
2023-01-28T07:05:25.128Z,9.55
2023-01-28T07:07:52.388Z,10.52
2023-01-28T07:10:19.384Z,9.65
2023-01-28T07:12:46.285Z,9.85
2023-01-28T07:15:15.182Z,8.57
2023-01-28T07:17:42.999Z,9.40
2023-01-28T07:20:13.348Z,8.07
2023-01-28T07:22:44.688Z,8.77
2023-01-28T07:25:13.089Z,7.78
2023-01-28T07:27:40.321Z,9.00
2023-01-28T07:30:08.303Z,8.43
2023-01-28T07:32:35.200Z,9.18
2023-01-28T07:35:02.184Z,7.70
2023-01-28T07:37:29.120Z,7.20
2023-01-28T07:39:56.086Z,7.90
2023-01-28T07:42:23.055Z,8.25
2023-01-28T07:44:53.578Z,7.88
2023-01-28T07:47:20.718Z,8.00
2023-01-28T07:49:47.840Z,9.23
2023-01-28T07:52:15.334Z,8.27
2023-01-28T07:54:42.291Z,7.97
2023-01-28T07:57:12.800Z,11.43
2023-01-28T07:59:39.770Z,8.35
2023-01-28T08:02:09.574Z,9.68
2023-01-28T08:04:36.697Z,7.88
2023-01-28T08:07:03.696Z,7.60
2023-01-28T08:09:30.639Z,8.45
2023-01-28T08:11:57.568Z,9.30
2023-01-28T08:14:24.511Z,8.77
2023-01-28T08:16:51.423Z,13.60
2023-01-28T08:19:18.811Z,8.15
2023-01-28T08:21:48.093Z,8.60
2023-01-28T08:24:15.114Z,8.45
2023-01-28T08:26:42.064Z,7.38
2023-01-28T08:29:09.386Z,7.57
2023-01-28T08:31:36.336Z,8.15
2023-01-28T08:34:03.345Z,8.05
2023-01-28T08:36:30.276Z,7.63
2023-01-28T08:38:57.240Z,7.90
2023-01-28T08:41:24.621Z,8.43
2023-01-28T08:43:51.602Z,12.63
2023-01-28T08:46:18.850Z,8.02
2023-01-28T08:48:45.803Z,7.28
2023-01-28T08:51:12.734Z,8.18
2023-01-28T08:53:39.808Z,8.45
2023-01-28T08:56:07.151Z,8.20
2023-01-28T08:58:34.094Z,9.07
2023-01-28T09:01:06.369Z,9.48
2023-01-28T09:03:33.589Z,7.70
2023-01-28T09:06:04.826Z,8.27
2023-01-28T09:08:32.102Z,7.50
2023-01-28T09:10:59.844Z,7.32
2023-01-28T09:13:27.241Z,10.70
2023-01-28T09:15:54.659Z,8.07
2023-01-28T09:18:22.160Z,16.70
2023-01-28T09:20:49.166Z,9.30
2023-01-28T09:23:16.327Z,7.55
2023-01-28T09:25:43.409Z,8.75
2023-01-28T09:28:10.352Z,9.13
2023-01-28T09:30:38.403Z,10.18
2023-01-28T09:33:06.645Z,7.45
2023-01-28T09:35:34.453Z,8.65
2023-01-28T09:38:01.482Z,7.63
2023-01-28T09:40:41.903Z,8.85
2023-01-28T09:43:41.170Z,9.05
2023-01-28T09:46:13.013Z,10.30
2023-01-28T09:48:52.191Z,10.43
2023-01-28T09:51:43.356Z,9.20
2023-01-28T09:54:38.458Z,10.80
2023-01-28T09:57:12.586Z,15.30
2023-01-28T09:59:39.722Z,9.52
2023-01-28T10:02:46.144Z,9.95
2023-01-28T10:05:46.446Z,9.23
2023-01-28T10:08:28.391Z,10.23
2023-01-28T10:11:36.946Z,11.75
2023-01-28T10:14:27.397Z,8.75
2023-01-28T10:17:25.185Z,9.52
2023-01-28T10:20:06.315Z,10.25
2023-01-28T10:23:01.055Z,10.10
2023-01-28T10:25:31.105Z,9.95
2023-01-28T10:28:00.780Z,11.63
2023-01-28T10:30:32.025Z,13.10
2023-01-28T10:33:08.882Z,10.65
2023-01-28T10:35:41.964Z,11.55
2023-01-28T10:38:19.198Z,10.02
2023-01-28T10:40:48.872Z,12.02
2023-01-28T10:43:22.789Z,12.75
2023-01-28T10:46:17.244Z,9.52
2023-01-28T10:49:12.783Z,9.73
2023-01-28T10:51:41.722Z,13.32
2023-01-28T10:54:26.722Z,10.40
2023-01-28T10:57:05.959Z,12.80
2023-01-28T10:59:36.747Z,9.15
2023-01-28T11:02:23.124Z,13.38
2023-01-28T11:05:01.881Z,9.70
2023-01-28T11:07:28.877Z,9.65
2023-01-28T11:09:55.897Z,13.95
2023-01-28T11:12:28.345Z,9.43
2023-01-28T11:15:03.720Z,9.23
2023-01-28T11:17:39.341Z,11.52
2023-01-28T11:20:19.895Z,10.35
2023-01-28T11:22:48.200Z,9.18
2023-01-28T11:25:28.171Z,11.32
2023-01-28T11:27:56.294Z,13.68
2023-01-28T11:30:40.902Z,9.18
2023-01-28T11:33:24.088Z,11.05
2023-01-28T11:36:03.944Z,8.93
2023-01-28T11:38:30.960Z,9.48
2023-01-28T11:41:00.896Z,9.10
2023-01-28T11:43:32.231Z,11.38
2023-01-28T11:46:19.608Z,10.02
2023-01-28T11:49:07.755Z,9.07
2023-01-28T11:51:50.403Z,10.93
2023-01-28T11:54:23.536Z,11.73
2023-01-28T11:57:13.741Z,8.70
2023-01-28T11:59:52.146Z,11.23
2023-01-28T12:02:51.122Z,10.05
2023-01-28T12:05:53.492Z,8.73
2023-01-28T12:08:20.524Z,9.02
2023-01-28T12:11:44.421Z,7.95
2023-01-28T12:14:28.729Z,8.77
2023-01-28T12:17:17.944Z,8.55
2023-01-28T12:20:03.244Z,9.75
2023-01-28T12:22:51.781Z,9.25
2023-01-28T12:25:49.529Z,8.23
2023-01-28T12:28:44.768Z,9.48
2023-01-28T12:31:24.150Z,8.07
2023-01-28T12:34:15.969Z,8.57
2023-01-28T12:36:58.206Z,8.75
2023-01-28T12:39:43.250Z,9.05
2023-01-28T12:42:20.365Z,8.82
2023-01-28T12:44:52.383Z,10.38
2023-01-28T12:47:35.726Z,8.25
2023-01-28T12:50:15.215Z,9.40
2023-01-28T12:52:51.101Z,9.07
2023-01-28T12:55:36.126Z,10.55
2023-01-28T12:58:07.436Z,13.60
2023-01-28T13:00:39.515Z,9.50
2023-01-28T13:03:33.101Z,9.38
2023-01-28T13:06:04.793Z,10.75
2023-01-28T13:08:32.357Z,10.98
2023-01-28T13:11:02.206Z,11.68
2023-01-28T13:13:38.562Z,9.90
2023-01-28T13:16:08.882Z,12.32
2023-01-28T13:18:42.503Z,9.57
2023-01-28T13:21:24.743Z,12.38
2023-01-28T13:24:21.204Z,10.88
2023-01-28T13:26:58.813Z,11.80
2023-01-28T13:29:25.691Z,10.60
2023-01-28T13:31:57.989Z,15.38
2023-01-28T13:34:57.447Z,13.10
2023-01-28T13:37:39.033Z,10.82
2023-01-28T13:40:15.210Z,14.27
2023-01-28T13:42:42.426Z,9.98
2023-01-28T13:45:30.358Z,13.85
2023-01-28T13:48:20.695Z,9.88
2023-01-28T13:50:52.476Z,11.63
2023-01-28T13:53:43.223Z,11.18
2023-01-28T13:56:22.078Z,9.75
2023-01-28T13:59:27.960Z,9.65
2023-01-28T14:02:03.697Z,11.43
2023-01-28T14:04:43.981Z,10.13
2023-01-28T14:07:45.695Z,12.93
2023-01-28T14:10:57.205Z,9.43
2023-01-28T14:13:49.157Z,11.77
2023-01-28T14:16:19.186Z,11.65
2023-01-28T14:18:47.662Z,11.20
2023-01-28T14:21:18.610Z,11.13
2023-01-28T14:23:51.973Z,10.27
2023-01-28T14:26:42.683Z,11.18
2023-01-28T14:29:27.875Z,12.25
2023-01-28T14:31:55.701Z,10.48
2023-01-28T14:34:34.873Z,10.43
2023-01-28T14:37:08.393Z,9.63
2023-01-28T14:39:44.578Z,9.80
2023-01-28T14:42:23.510Z,12.20
2023-01-28T14:45:23.911Z,12.77
2023-01-28T14:48:26.369Z,9.98
2023-01-28T14:51:20.175Z,10.35
2023-01-28T14:54:09.309Z,13.18
2023-01-28T14:56:55.638Z,9.35
2023-01-28T14:59:33.173Z,9.38
2023-01-28T15:02:00.484Z,10.35
2023-01-28T15:04:29.165Z,12.52
2023-01-28T15:06:56.723Z,11.90
2023-01-28T15:09:24.252Z,13.77
2023-01-28T15:11:54.902Z,10.77
2023-01-28T15:14:28.597Z,9.13
2023-01-28T15:16:56.136Z,14.75
2023-01-28T15:19:28.930Z,11.88
2023-01-28T15:21:57.848Z,11.10
2023-01-28T15:24:25.269Z,16.85
2023-01-28T15:26:52.898Z,12.10
2023-01-28T15:29:35.348Z,11.52
2023-01-28T15:32:04.191Z,11.40
2023-01-28T15:34:32.040Z,9.55
2023-01-28T15:37:02.057Z,9.88
2023-01-28T15:39:30.113Z,9.43
2023-01-28T15:42:03.869Z,12.57
2023-01-28T15:44:43.196Z,10.10
2023-01-28T15:47:23.492Z,9.68
2023-01-28T15:49:55.794Z,11.38
2023-01-28T15:52:32.670Z,12.30
2023-01-28T15:54:59.775Z,21.17
2023-01-28T15:57:31.151Z,12.32
2023-01-28T16:00:07.157Z,9.95
2023-01-28T16:02:45.733Z,12.07
2023-01-28T16:05:34.768Z,9.27
2023-01-28T16:08:13.088Z,14.20
2023-01-28T16:10:40.148Z,9.68
2023-01-28T16:13:16.868Z,10.57
2023-01-28T16:15:49.135Z,10.20
2023-01-28T16:18:41.769Z,13.82
2023-01-28T16:21:19.278Z,11.40
2023-01-28T16:23:52.859Z,10.43
2023-01-28T16:26:23.272Z,13.02
2023-01-28T16:28:50.374Z,15.38
2023-01-28T16:31:17.666Z,13.90
2023-01-28T16:33:45.193Z,22.58
2023-01-28T16:36:14.925Z,18.90
2023-01-28T16:38:42.141Z,17.35
2023-01-28T16:41:21.163Z,15.73
2023-01-28T16:43:48.212Z,13.25
2023-01-28T16:46:15.165Z,12.43
2023-01-28T16:48:42.356Z,14.13
2023-01-28T16:51:16.601Z,11.45
2023-01-28T16:53:44.512Z,13.68
2023-01-28T16:56:35.905Z,15.48
2023-01-28T16:59:08.927Z,14.15
2023-01-28T17:01:35.970Z,13.88
2023-01-28T17:04:11.948Z,15.57
2023-01-28T17:06:43.029Z,12.95
2023-01-28T17:09:12.728Z,15.75
2023-01-28T17:11:40.728Z,14.65
2023-01-28T17:14:08.352Z,15.40
2023-01-28T17:16:35.699Z,18.05
2023-01-28T17:19:02.823Z,15.35
2023-01-28T17:21:29.870Z,16.23
2023-01-28T17:23:58.356Z,16.15
2023-01-28T17:26:26.811Z,15.50
2023-01-28T17:28:53.943Z,13.93
2023-01-28T17:31:21.931Z,14.35
2023-01-28T17:33:54.777Z,16.48
2023-01-28T17:36:22.453Z,17.50
2023-01-28T17:38:49.373Z,18.50
2023-01-28T17:41:19.772Z,16.33
2023-01-28T17:43:54.619Z,14.35
2023-01-28T17:46:23.587Z,18.23
2023-01-28T17:48:50.711Z,17.20
2023-01-28T17:51:18.769Z,22.50
2023-01-28T17:53:50.346Z,18.50
2023-01-28T17:56:19.638Z,19.33
2023-01-28T17:58:54.681Z,21.48
2023-01-28T18:01:23.449Z,23.85
2023-01-28T18:03:50.859Z,21.67
2023-01-28T18:06:18.326Z,21.45
2023-01-28T18:08:45.748Z,20.50
2023-01-28T18:11:15.048Z,22.83
2023-01-28T18:13:42.842Z,23.02
2023-01-28T18:16:15.035Z,22.25
2023-01-28T18:18:42.532Z,24.75
2023-01-28T18:21:42.830Z,22.13
2023-01-28T18:24:17.649Z,23.27
2023-01-28T18:26:44.718Z,24.80
2023-01-28T18:29:16.779Z,23.60
2023-01-28T18:31:44.281Z,27.58
2023-01-28T18:34:11.615Z,30.27
2023-01-28T18:36:38.637Z,27.90
2023-01-28T18:39:05.853Z,26.58
2023-01-28T18:41:32.836Z,26.73
2023-01-28T18:43:59.766Z,23.75
2023-01-28T18:46:26.722Z,24.42
2023-01-28T18:48:55.786Z,26.30
2023-01-28T18:51:30.852Z,26.40
2023-01-28T18:53:59.495Z,22.88
2023-01-28T18:56:27.847Z,25.65
2023-01-28T18:59:03.592Z,24.63
2023-01-28T19:01:32.363Z,26.42
2023-01-28T19:03:59.706Z,24.83
2023-01-28T19:06:28.523Z,24.83
2023-01-28T19:08:58.446Z,25.77
2023-01-28T19:11:27.043Z,26.23
2023-01-28T19:13:54.183Z,27.63
2023-01-28T19:16:22.637Z,27.30
2023-01-28T19:18:57.867Z,27.25
2023-01-28T19:21:26.128Z,33.92
2023-01-28T19:23:58.342Z,30.15
2023-01-28T19:26:27.402Z,36.58
2023-01-28T19:28:54.632Z,40.30
2023-01-28T19:31:22.600Z,33.45
2023-01-28T19:33:53.150Z,33.03
2023-01-28T19:36:20.102Z,30.80
2023-01-28T19:38:47.048Z,31.20
2023-01-28T19:41:16.362Z,32.42
2023-01-28T19:43:43.993Z,35.80
2023-01-28T19:46:14.597Z,39.70
2023-01-28T19:48:41.842Z,35.90
2023-01-28T19:51:10.221Z,33.20
2023-01-28T19:53:38.444Z,41.70
2023-01-28T19:56:09.245Z,35.03
2023-01-28T19:58:37.928Z,37.35
2023-01-28T20:01:17.005Z,33.72
2023-01-28T20:03:45.637Z,37.88
2023-01-28T20:06:15.584Z,32.50
2023-01-28T20:08:43.556Z,30.63
2023-01-28T20:11:13.738Z,35.80
2023-01-28T20:13:42.989Z,55.60
2023-01-28T20:16:19.344Z,60.22
2023-01-28T20:18:51.621Z,54.50
2023-01-28T20:21:19.214Z,58.95
2023-01-28T20:23:48.238Z,52.15
2023-01-28T20:26:16.128Z,53.55
2023-01-28T20:28:43.166Z,60.88
2023-01-28T20:31:11.146Z,58.58
2023-01-28T20:33:39.176Z,51.30
2023-01-28T20:36:12.095Z,52.15
2023-01-28T20:38:41.641Z,49.53
2023-01-28T20:41:23.515Z,45.05
2023-01-28T20:43:51.925Z,44.97
2023-01-28T20:46:21.271Z,45.17
2023-01-28T20:48:49.325Z,40.97
2023-01-28T20:51:22.401Z,40.78
2023-01-28T20:53:50.220Z,42.95
2023-01-28T20:56:20.008Z,41.92
2023-01-28T20:58:51.966Z,41.38
2023-01-28T21:01:21.658Z,43.08
2023-01-28T21:03:49.204Z,39.80
2023-01-28T21:06:16.251Z,42.63
2023-01-28T21:08:43.945Z,47.50
2023-01-28T21:11:12.699Z,35.47
2023-01-28T21:13:40.274Z,41.17
2023-01-28T21:16:07.878Z,37.20
2023-01-28T21:18:34.918Z,37.17
2023-01-28T21:21:16.191Z,38.55
2023-01-28T21:23:43.111Z,39.28
2023-01-28T21:26:11.157Z,36.97
2023-01-28T21:28:38.361Z,37.05
2023-01-28T21:31:26.808Z,40.30
2023-01-28T21:33:55.925Z,34.30
2023-01-28T21:36:24.167Z,33.78
2023-01-28T21:39:00.213Z,37.05
2023-01-28T21:41:27.740Z,39.53
2023-01-28T21:43:57.569Z,35.10
2023-01-28T21:46:30.121Z,38.90
2023-01-28T21:48:59.213Z,35.70
2023-01-28T21:51:39.533Z,30.98
2023-01-28T21:54:13.548Z,30.70
2023-01-28T21:56:46.812Z,30.25
2023-01-28T21:59:35.775Z,32.13
2023-01-28T22:02:06.123Z,31.80
2023-01-28T22:04:41.396Z,36.22
2023-01-28T22:07:13.891Z,27.55
2023-01-28T22:09:42.833Z,28.60
2023-01-28T22:12:10.901Z,30.73
2023-01-28T22:14:39.601Z,29.13
2023-01-28T22:17:09.096Z,29.60
2023-01-28T22:19:36.952Z,34.83
2023-01-28T22:22:04.878Z,35.08
2023-01-28T22:24:32.028Z,28.52
2023-01-28T22:27:00.171Z,30.98
2023-01-28T22:29:28.164Z,34.50
2023-01-28T22:31:55.461Z,30.92
2023-01-28T22:34:26.383Z,30.55
2023-01-28T22:36:53.499Z,33.10
2023-01-28T22:39:20.487Z,31.10
2023-01-28T22:41:47.760Z,31.48
2023-01-28T22:44:15.014Z,30.60
2023-01-28T22:46:42.653Z,31.67
2023-01-28T22:49:11.945Z,36.92
2023-01-28T22:51:39.044Z,34.33
2023-01-28T22:54:06.093Z,31.25
2023-01-28T22:56:33.055Z,30.15
2023-01-28T22:59:02.525Z,32.35
2023-01-28T23:01:30.091Z,31.63
2023-01-28T23:03:57.138Z,27.02
2023-01-28T23:06:26.057Z,29.70
2023-01-28T23:08:54.288Z,34.00
2023-01-28T23:11:27.576Z,33.78
2023-01-28T23:14:18.985Z,27.35
2023-01-28T23:17:04.999Z,29.58
2023-01-28T23:19:50.925Z,32.65
2023-01-28T23:22:48.984Z,30.35
2023-01-28T23:25:16.617Z,27.75
2023-01-28T23:27:43.793Z,29.38
2023-01-28T23:30:12.083Z,28.25
2023-01-28T23:32:42.987Z,27.92
2023-01-28T23:35:11.193Z,27.15
2023-01-28T23:37:38.714Z,28.70
2023-01-28T23:40:07.097Z,27.40
2023-01-28T23:42:34.171Z,29.67
2023-01-28T23:45:01.343Z,29.48
2023-01-28T23:47:28.353Z,25.65
2023-01-28T23:49:55.299Z,27.63
2023-01-28T23:52:23.449Z,24.88
2023-01-28T23:54:50.403Z,25.10
2023-01-28T23:57:17.322Z,26.88
2023-01-28T23:59:44.369Z,25.92
